sensor_id;sensor_type;location;lat;lon;timestamp;P1;durP1;ratioP1;P2;durP2;ratioP2
13660;SDS011;6903;49.480;11.102;2023-04-24T00:00:00;3.50;;;3.20;;
13660;SDS011;6903;49.480;11.102;2023-04-24T00:02:25;3.70;;;3.00;;
13660;SDS011;6903;49.480;11.102;2023-04-24T00:04:51;3.67;;;2.87;;
13660;SDS011;6903;49.480;11.102;2023-04-24T00:07:16;3.93;;;3.27;;
13660;SDS011;6903;49.480;11.102;2023-04-24T00:09:42;5.77;;;3.43;;
13660;SDS011;6903;49.480;11.102;2023-04-24T00:12:08;4.80;;;3.50;;
13660;SDS011;6903;49.480;11.102;2023-04-24T00:14:34;5.23;;;3.27;;
13660;SDS011;6903;49.480;11.102;2023-04-24T00:17:00;3.77;;;3.30;;
13660;SDS011;6903;49.480;11.102;2023-04-24T00:19:26;3.90;;;3.47;;
13660;SDS011;6903;49.480;11.102;2023-04-24T00:21:51;4.40;;;3.20;;
13660;SDS011;6903;49.480;11.102;2023-04-24T00:24:17;4.77;;;3.50;;
13660;SDS011;6903;49.480;11.102;2023-04-24T00:26:43;3.73;;;3.43;;
13660;SDS011;6903;49.480;11.102;2023-04-24T00:29:08;3.70;;;3.33;;
13660;SDS011;6903;49.480;11.102;2023-04-24T00:31:34;3.70;;;3.30;;
13660;SDS011;6903;49.480;11.102;2023-04-24T00:34:00;3.57;;;3.27;;
13660;SDS011;6903;49.480;11.102;2023-04-24T00:36:28;4.60;;;3.40;;
13660;SDS011;6903;49.480;11.102;2023-04-24T00:38:55;4.63;;;3.50;;
13660;SDS011;6903;49.480;11.102;2023-04-24T00:41:21;5.87;;;3.40;;
13660;SDS011;6903;49.480;11.102;2023-04-24T00:43:46;4.40;;;3.47;;
13660;SDS011;6903;49.480;11.102;2023-04-24T00:46:12;5.57;;;3.90;;
13660;SDS011;6903;49.480;11.102;2023-04-24T00:48:40;5.20;;;3.67;;
13660;SDS011;6903;49.480;11.102;2023-04-24T00:51:06;6.00;;;3.33;;
13660;SDS011;6903;49.480;11.102;2023-04-24T00:53:31;4.43;;;3.70;;
13660;SDS011;6903;49.480;11.102;2023-04-24T00:55:57;5.83;;;3.70;;
13660;SDS011;6903;49.480;11.102;2023-04-24T00:58:23;4.80;;;4.30;;
13660;SDS011;6903;49.480;11.102;2023-04-24T01:00:49;4.90;;;3.60;;
13660;SDS011;6903;49.480;11.102;2023-04-24T01:03:17;5.07;;;3.70;;
13660;SDS011;6903;49.480;11.102;2023-04-24T01:05:45;6.03;;;3.63;;
13660;SDS011;6903;49.480;11.102;2023-04-24T01:08:10;4.83;;;3.60;;
13660;SDS011;6903;49.480;11.102;2023-04-24T01:10:36;4.20;;;3.50;;
13660;SDS011;6903;49.480;11.102;2023-04-24T01:13:03;4.40;;;3.63;;
13660;SDS011;6903;49.480;11.102;2023-04-24T01:15:29;5.03;;;4.20;;
13660;SDS011;6903;49.480;11.102;2023-04-24T01:17:54;4.10;;;3.57;;
13660;SDS011;6903;49.480;11.102;2023-04-24T01:20:20;4.90;;;3.77;;
13660;SDS011;6903;49.480;11.102;2023-04-24T01:22:46;5.20;;;3.80;;
13660;SDS011;6903;49.480;11.102;2023-04-24T01:25:12;5.40;;;4.10;;
13660;SDS011;6903;49.480;11.102;2023-04-24T01:27:37;4.37;;;3.50;;
13660;SDS011;6903;49.480;11.102;2023-04-24T01:30:02;4.93;;;3.83;;
13660;SDS011;6903;49.480;11.102;2023-04-24T01:32:28;5.70;;;3.73;;
13660;SDS011;6903;49.480;11.102;2023-04-24T01:34:53;6.83;;;4.30;;
13660;SDS011;6903;49.480;11.102;2023-04-24T01:37:20;4.30;;;3.50;;
13660;SDS011;6903;49.480;11.102;2023-04-24T01:39:45;4.30;;;3.20;;
13660;SDS011;6903;49.480;11.102;2023-04-24T01:42:10;3.53;;;3.00;;
13660;SDS011;6903;49.480;11.102;2023-04-24T01:44:37;4.30;;;2.30;;
13660;SDS011;6903;49.480;11.102;2023-04-24T01:47:02;3.00;;;2.60;;
13660;SDS011;6903;49.480;11.102;2023-04-24T01:49:27;2.47;;;2.23;;
13660;SDS011;6903;49.480;11.102;2023-04-24T01:51:53;3.23;;;2.30;;
13660;SDS011;6903;49.480;11.102;2023-04-24T01:54:18;2.30;;;1.90;;
13660;SDS011;6903;49.480;11.102;2023-04-24T01:56:44;2.90;;;2.47;;
13660;SDS011;6903;49.480;11.102;2023-04-24T01:59:10;2.40;;;2.03;;
13660;SDS011;6903;49.480;11.102;2023-04-24T02:01:36;4.03;;;2.07;;
13660;SDS011;6903;49.480;11.102;2023-04-24T02:04:03;2.50;;;2.00;;
13660;SDS011;6903;49.480;11.102;2023-04-24T02:06:29;2.10;;;1.87;;
13660;SDS011;6903;49.480;11.102;2023-04-24T02:08:56;3.10;;;2.10;;
13660;SDS011;6903;49.480;11.102;2023-04-24T02:11:22;4.53;;;2.07;;
13660;SDS011;6903;49.480;11.102;2023-04-24T02:13:47;2.47;;;1.87;;
13660;SDS011;6903;49.480;11.102;2023-04-24T02:16:13;2.97;;;1.60;;
13660;SDS011;6903;49.480;11.102;2023-04-24T02:18:38;2.57;;;1.80;;
13660;SDS011;6903;49.480;11.102;2023-04-24T02:21:03;2.87;;;1.60;;
13660;SDS011;6903;49.480;11.102;2023-04-24T02:23:29;2.80;;;1.83;;
13660;SDS011;6903;49.480;11.102;2023-04-24T02:25:54;1.90;;;1.70;;
13660;SDS011;6903;49.480;11.102;2023-04-24T02:28:20;1.90;;;1.70;;
13660;SDS011;6903;49.480;11.102;2023-04-24T02:30:46;2.40;;;1.53;;
13660;SDS011;6903;49.480;11.102;2023-04-24T02:33:11;2.20;;;1.80;;
13660;SDS011;6903;49.480;11.102;2023-04-24T02:35:36;3.70;;;1.67;;
13660;SDS011;6903;49.480;11.102;2023-04-24T02:38:02;2.37;;;2.00;;
13660;SDS011;6903;49.480;11.102;2023-04-24T02:40:28;2.27;;;1.60;;
13660;SDS011;6903;49.480;11.102;2023-04-24T02:42:53;2.40;;;1.57;;
13660;SDS011;6903;49.480;11.102;2023-04-24T02:45:18;2.33;;;1.70;;
13660;SDS011;6903;49.480;11.102;2023-04-24T02:47:44;1.70;;;1.60;;
13660;SDS011;6903;49.480;11.102;2023-04-24T02:50:09;3.03;;;1.80;;
13660;SDS011;6903;49.480;11.102;2023-04-24T02:52:35;2.10;;;1.77;;
13660;SDS011;6903;49.480;11.102;2023-04-24T02:55:00;1.93;;;1.70;;
13660;SDS011;6903;49.480;11.102;2023-04-24T02:57:25;2.47;;;1.67;;
13660;SDS011;6903;49.480;11.102;2023-04-24T02:59:51;2.70;;;1.40;;
13660;SDS011;6903;49.480;11.102;2023-04-24T03:02:16;1.70;;;1.50;;
13660;SDS011;6903;49.480;11.102;2023-04-24T03:04:41;2.03;;;1.70;;
13660;SDS011;6903;49.480;11.102;2023-04-24T03:07:09;2.23;;;1.60;;
13660;SDS011;6903;49.480;11.102;2023-04-24T03:09:34;4.47;;;1.90;;
13660;SDS011;6903;49.480;11.102;2023-04-24T03:12:00;2.47;;;1.80;;
13660;SDS011;6903;49.480;11.102;2023-04-24T03:14:25;2.90;;;2.17;;
13660;SDS011;6903;49.480;11.102;2023-04-24T03:16:50;2.77;;;2.20;;
13660;SDS011;6903;49.480;11.102;2023-04-24T03:19:16;3.60;;;2.60;;
13660;SDS011;6903;49.480;11.102;2023-04-24T03:21:41;4.50;;;2.77;;
13660;SDS011;6903;49.480;11.102;2023-04-24T03:24:07;3.00;;;2.70;;
13660;SDS011;6903;49.480;11.102;2023-04-24T03:26:33;3.20;;;2.70;;
13660;SDS011;6903;49.480;11.102;2023-04-24T03:28:58;3.97;;;2.73;;
13660;SDS011;6903;49.480;11.102;2023-04-24T03:31:24;2.90;;;2.47;;
13660;SDS011;6903;49.480;11.102;2023-04-24T03:33:49;3.50;;;2.50;;
13660;SDS011;6903;49.480;11.102;2023-04-24T03:36:14;2.47;;;2.27;;
13660;SDS011;6903;49.480;11.102;2023-04-24T03:38:40;3.57;;;2.63;;
13660;SDS011;6903;49.480;11.102;2023-04-24T03:41:05;2.50;;;2.20;;
13660;SDS011;6903;49.480;11.102;2023-04-24T03:43:30;3.70;;;2.60;;
13660;SDS011;6903;49.480;11.102;2023-04-24T03:45:58;3.00;;;2.50;;
13660;SDS011;6903;49.480;11.102;2023-04-24T03:48:23;2.97;;;2.20;;
13660;SDS011;6903;49.480;11.102;2023-04-24T03:50:49;3.33;;;2.47;;
13660;SDS011;6903;49.480;11.102;2023-04-24T03:53:14;3.00;;;2.33;;
13660;SDS011;6903;49.480;11.102;2023-04-24T03:55:40;3.07;;;2.47;;
13660;SDS011;6903;49.480;11.102;2023-04-24T03:58:05;3.70;;;2.70;;
13660;SDS011;6903;49.480;11.102;2023-04-24T04:00:30;3.07;;;2.50;;
13660;SDS011;6903;49.480;11.102;2023-04-24T04:02:57;2.67;;;2.30;;
13660;SDS011;6903;49.480;11.102;2023-04-24T04:05:22;4.03;;;2.60;;
13660;SDS011;6903;49.480;11.102;2023-04-24T04:07:47;3.20;;;2.50;;
13660;SDS011;6903;49.480;11.102;2023-04-24T04:10:13;4.07;;;3.20;;
13660;SDS011;6903;49.480;11.102;2023-04-24T04:12:38;3.70;;;2.60;;
13660;SDS011;6903;49.480;11.102;2023-04-24T04:15:03;3.67;;;2.50;;
13660;SDS011;6903;49.480;11.102;2023-04-24T04:17:30;3.17;;;2.60;;
13660;SDS011;6903;49.480;11.102;2023-04-24T04:19:56;4.60;;;2.80;;
13660;SDS011;6903;49.480;11.102;2023-04-24T04:22:22;3.70;;;2.97;;
13660;SDS011;6903;49.480;11.102;2023-04-24T04:24:47;3.10;;;2.50;;
13660;SDS011;6903;49.480;11.102;2023-04-24T04:27:12;3.10;;;2.80;;
13660;SDS011;6903;49.480;11.102;2023-04-24T04:29:38;3.80;;;2.83;;
13660;SDS011;6903;49.480;11.102;2023-04-24T04:32:04;3.27;;;2.90;;
13660;SDS011;6903;49.480;11.102;2023-04-24T04:34:31;2.83;;;2.50;;
13660;SDS011;6903;49.480;11.102;2023-04-24T04:36:56;3.67;;;2.50;;
13660;SDS011;6903;49.480;11.102;2023-04-24T04:39:24;3.63;;;2.60;;
13660;SDS011;6903;49.480;11.102;2023-04-24T04:41:50;4.77;;;2.90;;
13660;SDS011;6903;49.480;11.102;2023-04-24T04:44:15;2.73;;;2.50;;
13660;SDS011;6903;49.480;11.102;2023-04-24T04:46:40;2.97;;;2.67;;
13660;SDS011;6903;49.480;11.102;2023-04-24T04:49:06;4.00;;;2.97;;
13660;SDS011;6903;49.480;11.102;2023-04-24T04:51:33;3.73;;;3.00;;
13660;SDS011;6903;49.480;11.102;2023-04-24T04:53:58;3.70;;;3.17;;
13660;SDS011;6903;49.480;11.102;2023-04-24T04:56:24;3.40;;;2.73;;
13660;SDS011;6903;49.480;11.102;2023-04-24T04:58:49;2.70;;;2.50;;
13660;SDS011;6903;49.480;11.102;2023-04-24T05:01:15;4.87;;;2.87;;
13660;SDS011;6903;49.480;11.102;2023-04-24T05:03:40;2.93;;;2.63;;
13660;SDS011;6903;49.480;11.102;2023-04-24T05:06:05;3.63;;;3.00;;
13660;SDS011;6903;49.480;11.102;2023-04-24T05:08:31;5.50;;;3.10;;
13660;SDS011;6903;49.480;11.102;2023-04-24T05:10:56;5.20;;;3.27;;
13660;SDS011;6903;49.480;11.102;2023-04-24T05:13:21;3.20;;;2.90;;
13660;SDS011;6903;49.480;11.102;2023-04-24T05:15:47;4.50;;;3.50;;
13660;SDS011;6903;49.480;11.102;2023-04-24T05:18:12;4.63;;;3.50;;
13660;SDS011;6903;49.480;11.102;2023-04-24T05:20:38;3.27;;;2.80;;
13660;SDS011;6903;49.480;11.102;2023-04-24T05:23:03;4.70;;;3.60;;
13660;SDS011;6903;49.480;11.102;2023-04-24T05:25:28;3.67;;;3.13;;
13660;SDS011;6903;49.480;11.102;2023-04-24T05:27:53;3.60;;;3.20;;
13660;SDS011;6903;49.480;11.102;2023-04-24T05:30:19;4.20;;;2.80;;
13660;SDS011;6903;49.480;11.102;2023-04-24T05:32:44;3.67;;;2.70;;
13660;SDS011;6903;49.480;11.102;2023-04-24T05:35:10;3.77;;;3.07;;
13660;SDS011;6903;49.480;11.102;2023-04-24T05:37:35;3.13;;;2.73;;
13660;SDS011;6903;49.480;11.102;2023-04-24T05:40:00;2.90;;;2.57;;
13660;SDS011;6903;49.480;11.102;2023-04-24T05:42:26;4.03;;;2.80;;
13660;SDS011;6903;49.480;11.102;2023-04-24T05:44:51;4.60;;;2.40;;
13660;SDS011;6903;49.480;11.102;2023-04-24T05:47:18;3.17;;;2.60;;
13660;SDS011;6903;49.480;11.102;2023-04-24T05:49:44;4.33;;;2.83;;
13660;SDS011;6903;49.480;11.102;2023-04-24T05:52:09;6.00;;;2.83;;
13660;SDS011;6903;49.480;11.102;2023-04-24T05:54:35;3.77;;;3.10;;
13660;SDS011;6903;49.480;11.102;2023-04-24T05:57:00;4.87;;;2.70;;
13660;SDS011;6903;49.480;11.102;2023-04-24T05:59:29;3.23;;;2.27;;
13660;SDS011;6903;49.480;11.102;2023-04-24T06:01:54;3.53;;;2.50;;
13660;SDS011;6903;49.480;11.102;2023-04-24T06:04:20;2.20;;;2.00;;
13660;SDS011;6903;49.480;11.102;2023-04-24T06:06:45;4.53;;;2.47;;
13660;SDS011;6903;49.480;11.102;2023-04-24T06:09:10;5.70;;;2.73;;
13660;SDS011;6903;49.480;11.102;2023-04-24T06:11:36;2.90;;;2.60;;
13660;SDS011;6903;49.480;11.102;2023-04-24T06:14:02;4.77;;;2.50;;
13660;SDS011;6903;49.480;11.102;2023-04-24T06:16:27;4.00;;;2.30;;
13660;SDS011;6903;49.480;11.102;2023-04-24T06:18:52;3.13;;;2.23;;
13660;SDS011;6903;49.480;11.102;2023-04-24T06:21:18;3.03;;;2.20;;
13660;SDS011;6903;49.480;11.102;2023-04-24T06:23:43;3.33;;;2.43;;
13660;SDS011;6903;49.480;11.102;2023-04-24T06:26:08;3.20;;;2.27;;
13660;SDS011;6903;49.480;11.102;2023-04-24T06:28:34;2.87;;;2.30;;
13660;SDS011;6903;49.480;11.102;2023-04-24T06:30:59;3.37;;;2.30;;
13660;SDS011;6903;49.480;11.102;2023-04-24T06:33:25;3.67;;;2.23;;
13660;SDS011;6903;49.480;11.102;2023-04-24T06:35:50;3.40;;;2.20;;
13660;SDS011;6903;49.480;11.102;2023-04-24T06:38:15;4.57;;;2.10;;
13660;SDS011;6903;49.480;11.102;2023-04-24T06:40:41;2.77;;;2.03;;
13660;SDS011;6903;49.480;11.102;2023-04-24T06:43:06;3.17;;;2.03;;
13660;SDS011;6903;49.480;11.102;2023-04-24T06:45:31;2.30;;;1.80;;
13660;SDS011;6903;49.480;11.102;2023-04-24T06:47:57;1.93;;;1.70;;
13660;SDS011;6903;49.480;11.102;2023-04-24T06:50:22;1.67;;;1.57;;
13660;SDS011;6903;49.480;11.102;2023-04-24T06:52:47;1.63;;;1.33;;
13660;SDS011;6903;49.480;11.102;2023-04-24T06:55:13;2.30;;;1.40;;
13660;SDS011;6903;49.480;11.102;2023-04-24T06:57:40;1.87;;;1.40;;
13660;SDS011;6903;49.480;11.102;2023-04-24T07:00:05;1.50;;;1.20;;
13660;SDS011;6903;49.480;11.102;2023-04-24T07:02:32;2.50;;;1.70;;
13660;SDS011;6903;49.480;11.102;2023-04-24T07:04:57;2.77;;;1.60;;
13660;SDS011;6903;49.480;11.102;2023-04-24T07:07:22;3.80;;;1.30;;
13660;SDS011;6903;49.480;11.102;2023-04-24T07:09:48;2.20;;;1.50;;
13660;SDS011;6903;49.480;11.102;2023-04-24T07:12:15;1.70;;;1.60;;
13660;SDS011;6903;49.480;11.102;2023-04-24T07:14:41;1.53;;;1.40;;
13660;SDS011;6903;49.480;11.102;2023-04-24T07:17:07;1.97;;;1.30;;
13660;SDS011;6903;49.480;11.102;2023-04-24T07:19:33;2.20;;;1.30;;
13660;SDS011;6903;49.480;11.102;2023-04-24T07:22:00;3.23;;;1.37;;
13660;SDS011;6903;49.480;11.102;2023-04-24T07:24:25;2.80;;;1.50;;
13660;SDS011;6903;49.480;11.102;2023-04-24T07:26:51;1.67;;;1.40;;
13660;SDS011;6903;49.480;11.102;2023-04-24T07:29:17;1.83;;;1.40;;
13660;SDS011;6903;49.480;11.102;2023-04-24T07:31:43;1.70;;;1.57;;
13660;SDS011;6903;49.480;11.102;2023-04-24T07:34:08;2.00;;;1.20;;
13660;SDS011;6903;49.480;11.102;2023-04-24T07:36:34;2.77;;;1.57;;
13660;SDS011;6903;49.480;11.102;2023-04-24T07:39:00;1.20;;;1.10;;
13660;SDS011;6903;49.480;11.102;2023-04-24T07:41:25;3.43;;;1.57;;
13660;SDS011;6903;49.480;11.102;2023-04-24T07:43:52;2.40;;;1.43;;
13660;SDS011;6903;49.480;11.102;2023-04-24T07:46:18;2.47;;;1.50;;
13660;SDS011;6903;49.480;11.102;2023-04-24T07:48:44;2.10;;;1.40;;
13660;SDS011;6903;49.480;11.102;2023-04-24T07:51:11;1.40;;;1.30;;
13660;SDS011;6903;49.480;11.102;2023-04-24T07:53:38;2.10;;;1.53;;
13660;SDS011;6903;49.480;11.102;2023-04-24T07:56:04;2.80;;;1.50;;
13660;SDS011;6903;49.480;11.102;2023-04-24T07:58:29;1.73;;;1.57;;
13660;SDS011;6903;49.480;11.102;2023-04-24T08:00:54;3.27;;;1.50;;
13660;SDS011;6903;49.480;11.102;2023-04-24T08:03:20;2.43;;;1.50;;
13660;SDS011;6903;49.480;11.102;2023-04-24T08:05:45;2.73;;;1.60;;
13660;SDS011;6903;49.480;11.102;2023-04-24T08:08:11;1.70;;;1.60;;
13660;SDS011;6903;49.480;11.102;2023-04-24T08:10:36;1.60;;;1.50;;
13660;SDS011;6903;49.480;11.102;2023-04-24T08:13:02;2.73;;;1.77;;
13660;SDS011;6903;49.480;11.102;2023-04-24T08:15:27;2.83;;;1.90;;
13660;SDS011;6903;49.480;11.102;2023-04-24T08:17:53;2.50;;;1.63;;
13660;SDS011;6903;49.480;11.102;2023-04-24T08:20:18;2.50;;;1.57;;
13660;SDS011;6903;49.480;11.102;2023-04-24T08:22:43;2.97;;;1.90;;
13660;SDS011;6903;49.480;11.102;2023-04-24T08:25:10;2.03;;;1.67;;
13660;SDS011;6903;49.480;11.102;2023-04-24T08:27:36;2.00;;;1.80;;
13660;SDS011;6903;49.480;11.102;2023-04-24T08:30:02;1.70;;;1.60;;
13660;SDS011;6903;49.480;11.102;2023-04-24T08:32:28;4.97;;;1.67;;
13660;SDS011;6903;49.480;11.102;2023-04-24T08:34:54;2.43;;;1.97;;
13660;SDS011;6903;49.480;11.102;2023-04-24T08:37:22;2.37;;;1.70;;
13660;SDS011;6903;49.480;11.102;2023-04-24T08:39:51;2.27;;;1.93;;
13660;SDS011;6903;49.480;11.102;2023-04-24T08:42:18;3.03;;;2.13;;
13660;SDS011;6903;49.480;11.102;2023-04-24T08:44:44;2.07;;;1.90;;
13660;SDS011;6903;49.480;11.102;2023-04-24T08:47:10;3.00;;;2.13;;
13660;SDS011;6903;49.480;11.102;2023-04-24T08:49:36;2.83;;;2.00;;
13660;SDS011;6903;49.480;11.102;2023-04-24T08:52:02;2.40;;;2.00;;
13660;SDS011;6903;49.480;11.102;2023-04-24T08:54:28;1.88;;;1.65;;
13660;SDS011;6903;49.480;11.102;2023-04-24T08:56:54;2.28;;;1.80;;
13660;SDS011;6903;49.480;11.102;2023-04-24T08:59:27;2.35;;;1.73;;
13660;SDS011;6903;49.480;11.102;2023-04-24T09:01:52;3.83;;;1.92;;
13660;SDS011;6903;49.480;11.102;2023-04-24T09:04:19;2.35;;;1.90;;
13660;SDS011;6903;49.480;11.102;2023-04-24T09:06:48;2.40;;;1.80;;
13660;SDS011;6903;49.480;11.102;2023-04-24T09:09:14;2.35;;;2.00;;
13660;SDS011;6903;49.480;11.102;2023-04-24T09:11:41;2.08;;;1.88;;
13660;SDS011;6903;49.480;11.102;2023-04-24T09:14:06;4.95;;;2.25;;
13660;SDS011;6903;49.480;11.102;2023-04-24T09:16:34;3.10;;;2.10;;
13660;SDS011;6903;49.480;11.102;2023-04-24T09:19:00;2.10;;;1.90;;
13660;SDS011;6903;49.480;11.102;2023-04-24T09:21:27;3.00;;;2.00;;
13660;SDS011;6903;49.480;11.102;2023-04-24T09:23:58;4.07;;;1.90;;
13660;SDS011;6903;49.480;11.102;2023-04-24T09:26:24;2.58;;;2.35;;
13660;SDS011;6903;49.480;11.102;2023-04-24T09:28:50;1.92;;;1.80;;
13660;SDS011;6903;49.480;11.102;2023-04-24T09:31:17;2.00;;;1.80;;
13660;SDS011;6903;49.480;11.102;2023-04-24T09:36:27;3.00;;;1.80;;
13660;SDS011;6903;49.480;11.102;2023-04-24T09:38:53;2.30;;;2.10;;
13660;SDS011;6903;49.480;11.102;2023-04-24T09:41:23;2.90;;;1.98;;
13660;SDS011;6903;49.480;11.102;2023-04-24T09:43:48;2.22;;;1.70;;
13660;SDS011;6903;49.480;11.102;2023-04-24T09:46:13;2.20;;;2.00;;
13660;SDS011;6903;49.480;11.102;2023-04-24T09:48:38;2.80;;;1.90;;
13660;SDS011;6903;49.480;11.102;2023-04-24T09:51:04;3.15;;;1.95;;
13660;SDS011;6903;49.480;11.102;2023-04-24T09:53:37;3.53;;;2.28;;
13660;SDS011;6903;49.480;11.102;2023-04-24T09:56:07;2.42;;;1.80;;
13660;SDS011;6903;49.480;11.102;2023-04-24T09:58:34;3.63;;;1.83;;
13660;SDS011;6903;49.480;11.102;2023-04-24T10:01:00;2.40;;;1.38;;
13660;SDS011;6903;49.480;11.102;2023-04-24T10:03:26;1.48;;;1.38;;
13660;SDS011;6903;49.480;11.102;2023-04-24T10:05:58;2.17;;;1.50;;
13660;SDS011;6903;49.480;11.102;2023-04-24T10:08:26;3.00;;;1.50;;
13660;SDS011;6903;49.480;11.102;2023-04-24T10:10:58;2.10;;;1.40;;
13660;SDS011;6903;49.480;11.102;2023-04-24T10:13:24;1.50;;;1.40;;
13660;SDS011;6903;49.480;11.102;2023-04-24T10:15:50;1.88;;;1.40;;
13660;SDS011;6903;49.480;11.102;2023-04-24T10:18:16;2.58;;;1.55;;
13660;SDS011;6903;49.480;11.102;2023-04-24T10:20:42;2.17;;;1.20;;
13660;SDS011;6903;49.480;11.102;2023-04-24T10:23:08;1.05;;;0.95;;
13660;SDS011;6903;49.480;11.102;2023-04-24T10:25:34;3.28;;;1.30;;
13660;SDS011;6903;49.480;11.102;2023-04-24T10:28:00;1.40;;;1.30;;
13660;SDS011;6903;49.480;11.102;2023-04-24T10:30:28;1.30;;;1.20;;
13660;SDS011;6903;49.480;11.102;2023-04-24T10:32:55;2.50;;;1.25;;
13660;SDS011;6903;49.480;11.102;2023-04-24T10:35:21;1.27;;;0.95;;
13660;SDS011;6903;49.480;11.102;2023-04-24T10:37:50;1.90;;;1.00;;
13660;SDS011;6903;49.480;11.102;2023-04-24T10:40:19;2.17;;;1.20;;
13660;SDS011;6903;49.480;11.102;2023-04-24T10:42:51;2.42;;;0.90;;
13660;SDS011;6903;49.480;11.102;2023-04-24T10:45:20;2.67;;;0.90;;
13660;SDS011;6903;49.480;11.102;2023-04-24T10:47:56;1.10;;;1.00;;
13660;SDS011;6903;49.480;11.102;2023-04-24T10:50:42;0.90;;;0.90;;
13660;SDS011;6903;49.480;11.102;2023-04-24T10:53:12;1.65;;;1.02;;
13660;SDS011;6903;49.480;11.102;2023-04-24T10:55:43;2.60;;;1.20;;
13660;SDS011;6903;49.480;11.102;2023-04-24T10:58:15;1.83;;;1.10;;
13660;SDS011;6903;49.480;11.102;2023-04-24T11:00:44;1.10;;;1.00;;
13660;SDS011;6903;49.480;11.102;2023-04-24T11:03:28;1.38;;;1.27;;
13660;SDS011;6903;49.480;11.102;2023-04-24T11:05:56;1.25;;;0.95;;
13660;SDS011;6903;49.480;11.102;2023-04-24T11:11:08;2.08;;;0.80;;
13660;SDS011;6903;49.480;11.102;2023-04-24T11:16:26;1.08;;;1.00;;
13660;SDS011;6903;49.480;11.102;2023-04-24T11:26:57;1.25;;;1.15;;
13660;SDS011;6903;49.480;11.102;2023-04-24T11:29:39;2.15;;;1.30;;
13660;SDS011;6903;49.480;11.102;2023-04-24T11:33:05;1.10;;;1.00;;
13660;SDS011;6903;49.480;11.102;2023-04-24T11:37:33;1.35;;;1.25;;
13660;SDS011;6903;49.480;11.102;2023-04-24T11:40:01;1.95;;;1.23;;
13660;SDS011;6903;49.480;11.102;2023-04-24T11:42:27;1.42;;;1.33;;
13660;SDS011;6903;49.480;11.102;2023-04-24T11:44:53;1.73;;;1.30;;
13660;SDS011;6903;49.480;11.102;2023-04-24T11:47:28;1.95;;;1.52;;
13660;SDS011;6903;49.480;11.102;2023-04-24T11:49:55;2.25;;;1.27;;
13660;SDS011;6903;49.480;11.102;2023-04-24T11:52:20;1.48;;;1.38;;
13660;SDS011;6903;49.480;11.102;2023-04-24T11:54:49;1.88;;;1.67;;
13660;SDS011;6903;49.480;11.102;2023-04-24T11:57:21;1.67;;;1.58;;
13660;SDS011;6903;49.480;11.102;2023-04-24T11:59:52;4.40;;;1.95;;
13660;SDS011;6903;49.480;11.102;2023-04-24T12:02:21;1.80;;;1.67;;
13660;SDS011;6903;49.480;11.102;2023-04-24T12:04:48;2.58;;;1.58;;
13660;SDS011;6903;49.480;11.102;2023-04-24T12:07:13;2.83;;;1.48;;
13660;SDS011;6903;49.480;11.102;2023-04-24T12:09:45;1.13;;;1.07;;
13660;SDS011;6903;49.480;11.102;2023-04-24T12:12:20;1.65;;;1.20;;
13660;SDS011;6903;49.480;11.102;2023-04-24T12:14:52;1.80;;;1.55;;
13660;SDS011;6903;49.480;11.102;2023-04-24T12:17:29;1.98;;;1.40;;
13660;SDS011;6903;49.480;11.102;2023-04-24T12:19:57;2.22;;;1.75;;
13660;SDS011;6903;49.480;11.102;2023-04-24T12:22:24;1.70;;;1.40;;
13660;SDS011;6903;49.480;11.102;2023-04-24T12:24:56;1.48;;;1.33;;
13660;SDS011;6903;49.480;11.102;2023-04-24T12:27:23;1.70;;;1.58;;
13660;SDS011;6903;49.480;11.102;2023-04-24T12:29:52;2.10;;;1.42;;
13660;SDS011;6903;49.480;11.102;2023-04-24T12:32:18;1.95;;;1.60;;
13660;SDS011;6903;49.480;11.102;2023-04-24T12:34:43;2.28;;;1.50;;
13660;SDS011;6903;49.480;11.102;2023-04-24T12:37:10;2.10;;;1.48;;
13660;SDS011;6903;49.480;11.102;2023-04-24T12:39:36;2.22;;;1.52;;
13660;SDS011;6903;49.480;11.102;2023-04-24T12:42:01;1.60;;;1.50;;
13660;SDS011;6903;49.480;11.102;2023-04-24T12:46:56;1.60;;;1.50;;
13660;SDS011;6903;49.480;11.102;2023-04-24T12:49:22;2.58;;;1.40;;
13660;SDS011;6903;49.480;11.102;2023-04-24T12:51:47;1.50;;;1.33;;
13660;SDS011;6903;49.480;11.102;2023-04-24T12:54:12;1.33;;;1.10;;
13660;SDS011;6903;49.480;11.102;2023-04-24T12:56:38;1.98;;;1.30;;
13660;SDS011;6903;49.480;11.102;2023-04-24T12:59:04;2.10;;;1.30;;
13660;SDS011;6903;49.480;11.102;2023-04-24T13:01:30;1.40;;;1.20;;
13660;SDS011;6903;49.480;11.102;2023-04-24T13:03:55;2.80;;;1.35;;
13660;SDS011;6903;49.480;11.102;2023-04-24T13:06:20;1.30;;;1.20;;
13660;SDS011;6903;49.480;11.102;2023-04-24T13:11:55;1.67;;;1.35;;
13660;SDS011;6903;49.480;11.102;2023-04-24T13:14:21;1.60;;;1.45;;
13660;SDS011;6903;49.480;11.102;2023-04-24T13:16:47;1.65;;;1.20;;
13660;SDS011;6903;49.480;11.102;2023-04-24T13:19:13;1.95;;;1.40;;
13660;SDS011;6903;49.480;11.102;2023-04-24T13:21:38;3.15;;;1.50;;
13660;SDS011;6903;49.480;11.102;2023-04-24T13:24:03;1.83;;;1.52;;
13660;SDS011;6903;49.480;11.102;2023-04-24T13:26:29;2.00;;;1.38;;
13660;SDS011;6903;49.480;11.102;2023-04-24T13:28:55;3.10;;;1.40;;
13660;SDS011;6903;49.480;11.102;2023-04-24T13:31:20;1.75;;;1.50;;
13660;SDS011;6903;49.480;11.102;2023-04-24T13:33:46;1.60;;;1.50;;
13660;SDS011;6903;49.480;11.102;2023-04-24T13:36:11;2.00;;;1.40;;
13660;SDS011;6903;49.480;11.102;2023-04-24T13:38:36;2.03;;;1.80;;
13660;SDS011;6903;49.480;11.102;2023-04-24T13:41:02;2.25;;;1.67;;
13660;SDS011;6903;49.480;11.102;2023-04-24T13:43:27;1.90;;;1.50;;
13660;SDS011;6903;49.480;11.102;2023-04-24T13:45:52;1.60;;;1.50;;
13660;SDS011;6903;49.480;11.102;2023-04-24T13:48:18;3.08;;;1.77;;
13660;SDS011;6903;49.480;11.102;2023-04-24T13:50:43;2.38;;;1.77;;
13660;SDS011;6903;49.480;11.102;2023-04-24T13:53:09;2.38;;;1.42;;
13660;SDS011;6903;49.480;11.102;2023-04-24T13:55:34;1.58;;;1.40;;
13660;SDS011;6903;49.480;11.102;2023-04-24T13:58:00;2.20;;;1.43;;
13660;SDS011;6903;49.480;11.102;2023-04-24T14:00:26;2.38;;;1.73;;
13660;SDS011;6903;49.480;11.102;2023-04-24T14:02:52;1.70;;;1.58;;
13660;SDS011;6903;49.480;11.102;2023-04-24T14:05:18;2.20;;;1.73;;
13660;SDS011;6903;49.480;11.102;2023-04-24T14:07:43;1.87;;;1.47;;
13660;SDS011;6903;49.480;11.102;2023-04-24T14:10:08;2.40;;;1.80;;
13660;SDS011;6903;49.480;11.102;2023-04-24T14:12:34;2.73;;;2.10;;
13660;SDS011;6903;49.480;11.102;2023-04-24T14:14:59;2.20;;;2.00;;
13660;SDS011;6903;49.480;11.102;2023-04-24T14:17:26;2.43;;;2.03;;
13660;SDS011;6903;49.480;11.102;2023-04-24T14:19:51;2.38;;;2.17;;
13660;SDS011;6903;49.480;11.102;2023-04-24T14:22:17;2.43;;;2.23;;
13660;SDS011;6903;49.480;11.102;2023-04-24T14:24:42;2.50;;;2.08;;
13660;SDS011;6903;49.480;11.102;2023-04-24T14:27:08;7.60;;;2.33;;
13660;SDS011;6903;49.480;11.102;2023-04-24T14:29:34;4.50;;;2.15;;
13660;SDS011;6903;49.480;11.102;2023-04-24T14:31:59;12.27;;;2.75;;
13660;SDS011;6903;49.480;11.102;2023-04-24T14:34:24;4.13;;;2.22;;
13660;SDS011;6903;49.480;11.102;2023-04-24T14:36:50;2.50;;;2.30;;
13660;SDS011;6903;49.480;11.102;2023-04-24T14:39:15;2.83;;;1.88;;
13660;SDS011;6903;49.480;11.102;2023-04-24T14:41:40;4.93;;;2.28;;
13660;SDS011;6903;49.480;11.102;2023-04-24T14:44:06;10.68;;;2.47;;
13660;SDS011;6903;49.480;11.102;2023-04-24T14:46:31;4.22;;;2.13;;
13660;SDS011;6903;49.480;11.102;2023-04-24T14:48:56;5.17;;;1.93;;
13660;SDS011;6903;49.480;11.102;2023-04-24T14:51:22;7.63;;;1.60;;
13660;SDS011;6903;49.480;11.102;2023-04-24T14:53:48;2.47;;;1.40;;
13660;SDS011;6903;49.480;11.102;2023-04-24T14:56:14;3.05;;;1.70;;
13660;SDS011;6903;49.480;11.102;2023-04-24T14:58:40;4.03;;;1.90;;
13660;SDS011;6903;49.480;11.102;2023-04-24T15:01:06;15.20;;;2.60;;
13660;SDS011;6903;49.480;11.102;2023-04-24T15:03:31;71.38;;;6.45;;
13660;SDS011;6903;49.480;11.102;2023-04-24T15:05:56;10.57;;;1.95;;